Terminal Aerodrome Forecast
Issued by NWS

Home | Current Version | Previous Version | Text Only | Print | Product List | Glossary On
Versions: 1 2 3 4 5 6 7 8 9 10 11 12 13 14 15 16 17 18 19 20 21 22
000
FTAK31 PAFA 201131
TAFAOT
TAF
PAOT 201131Z 2012/2112 03005KT P6SM SKC
     FM201400 14010KT P6SM SKC
     FM201800 11015KT P6SM SCT200
     FM210200 11020G28KT 5SM BLSN BR SCT120 BKN200
     FM210700 11034G42KT 1/4SM SN BLSN FG BKN015 OVC025
     FM211000 11042G52KT 1/4SM SN BLSN FG BKN003 OVC007=

USA.gov is the U.S. government's official web portal to all federal, state and local government web resources and services.